SKSP

Gustavo Rojas Pinilla International Airport

San Andrés, Colombia
TAF SKSP 151100Z 1512/1612 08008KT 9999 FEW017 BKN200 TX32/1519Z TN26/1611Z
Issued Valid From Valid To
Aug-15 @ 11:00 UTC
(2 hours ago)
Aug-15 @ 12:00 UTC
(42 minutes ago)
Aug-16 @ 12:00 UTC
(in 23 hours)
Aug-15 @ 12:00 to Aug-16 @ 12:00
TAF SKSP 151100Z 1512/1612 08008KT 9999 FEW017 BKN200 TX32/1519Z TN26/1611Z
Wind Visibility Clouds
80° at 8 knots 10,000+ meters
  • Few at 1,700' AGL
  • Broken at 20,000' AGL
TAF SKSP 151100Z 1512/1612 08008KT 9999 FEW017 BKN200 TX32/1519Z TN26/1611Z
Issued Aug-15 @ 11:00 UTC
(2 hours ago)
Valid From Aug-15 @ 12:00 UTC
(42 minutes ago)
Valid To Aug-16 @ 12:00 UTC
(in 23 hours)
Aug-15 @ 12:00 - Aug-16 @ 12:00
Wind Visibility
80° at 8 knots 10,000+ meters
Clouds
  • Few at 1,700' AGL
  • Broken at 20,000' AGL